createdAt,value
2017-02-21T00:00:39.307Z,998
2017-02-21T00:03:11.919Z,998
2017-02-21T00:05:44.566Z,997.9
2017-02-21T00:08:17.604Z,997.9
2017-02-21T00:10:50.229Z,997.9
2017-02-21T00:13:22.886Z,997.9
2017-02-21T00:15:55.495Z,998
2017-02-21T00:18:28.730Z,998
2017-02-21T00:21:01.780Z,998.1
2017-02-21T00:23:34.812Z,998
2017-02-21T00:26:07.435Z,997.9
2017-02-21T00:28:40.475Z,998
2017-02-21T00:31:13.709Z,998
2017-02-21T00:33:46.335Z,998
2017-02-21T00:36:19.154Z,998
2017-02-21T00:38:52.189Z,997.9
2017-02-21T00:41:25.252Z,998
2017-02-21T00:43:58.704Z,998
2017-02-21T00:46:31.760Z,998
2017-02-21T00:49:04.814Z,998.1
2017-02-21T00:51:37.442Z,998.1
2017-02-21T00:54:10.518Z,998.1
2017-02-21T00:56:43.154Z,998.2
2017-02-21T00:59:15.768Z,998.1
2017-02-21T01:01:48.601Z,998.1
2017-02-21T01:04:21.415Z,997.9
2017-02-21T01:06:54.062Z,998
2017-02-21T01:09:26.700Z,998
2017-02-21T01:11:59.785Z,998
2017-02-21T01:14:32.528Z,997.9
2017-02-21T01:17:05.203Z,998
2017-02-21T01:19:38.278Z,997.9
2017-02-21T01:22:10.902Z,997.8
2017-02-21T01:24:43.544Z,997.9
2017-02-21T01:27:16.195Z,998
2017-02-21T01:29:49.293Z,997.9
2017-02-21T01:32:21.930Z,998
2017-02-21T01:34:54.546Z,998.1
2017-02-21T01:37:27.160Z,998.1
2017-02-21T01:39:59.803Z,998.1
2017-02-21T01:42:32.428Z,998.3
2017-02-21T01:45:05.062Z,998.3
2017-02-21T01:47:37.708Z,998.4
2017-02-21T01:50:10.368Z,998.4
2017-02-21T01:52:43.003Z,998.4
2017-02-21T01:55:16.077Z,998.4
2017-02-21T01:57:49.133Z,998.4
2017-02-21T02:00:22.198Z,998.4
2017-02-21T02:02:54.848Z,998.4
2017-02-21T02:05:27.507Z,998.4
2017-02-21T02:08:00.104Z,998.4
2017-02-21T02:10:33.183Z,998.2
2017-02-21T02:13:05.843Z,998.1
2017-02-21T02:15:38.477Z,998.1
2017-02-21T02:18:11.119Z,998.2
2017-02-21T02:20:44.631Z,998.1
2017-02-21T02:23:17.284Z,998.2
2017-02-21T02:25:50.364Z,998.1
2017-02-21T02:28:23.000Z,998.1
2017-02-21T02:30:55.659Z,998.1
2017-02-21T02:33:29.153Z,998.2
2017-02-21T02:36:02.651Z,998.2
2017-02-21T02:38:36.133Z,998.2
2017-02-21T02:41:08.765Z,998.2
2017-02-21T02:43:41.405Z,998.1
2017-02-21T02:46:14.050Z,998.1
2017-02-21T02:48:47.132Z,998.2
2017-02-21T02:51:19.766Z,998.2
2017-02-21T02:53:52.415Z,998.2
2017-02-21T02:56:25.217Z,998.3
2017-02-21T02:58:57.845Z,998.2
2017-02-21T03:01:30.465Z,998.2
2017-02-21T03:04:03.098Z,998.2
2017-02-21T03:06:35.731Z,998.1
2017-02-21T03:09:08.821Z,998
2017-02-21T03:11:41.424Z,998
2017-02-21T03:14:14.102Z,998
2017-02-21T03:16:47.129Z,998.1
2017-02-21T03:19:19.763Z,998.1
2017-02-21T03:21:52.960Z,998
2017-02-21T03:24:25.568Z,998.1
2017-02-21T03:26:58.240Z,998.1
2017-02-21T03:29:31.316Z,998.1
2017-02-21T03:32:03.981Z,998.1
2017-02-21T03:34:36.611Z,998
2017-02-21T03:37:09.278Z,998
2017-02-21T03:39:42.321Z,998
2017-02-21T03:42:14.979Z,998
2017-02-21T03:44:47.631Z,998
2017-02-21T03:47:20.269Z,998
2017-02-21T03:49:52.902Z,998
2017-02-21T03:52:25.677Z,998
2017-02-21T03:54:58.302Z,998
2017-02-21T03:57:31.361Z,998
2017-02-21T04:00:04.406Z,998.1
2017-02-21T04:02:37.018Z,998.1
2017-02-21T04:05:09.669Z,998.1
2017-02-21T04:07:42.307Z,998
2017-02-21T04:10:15.402Z,998
2017-02-21T04:12:48.470Z,998
2017-02-21T04:15:21.088Z,998
2017-02-21T04:17:54.132Z,998
2017-02-21T04:20:26.742Z,998
2017-02-21T04:22:59.854Z,997.9
2017-02-21T04:25:32.468Z,997.9
2017-02-21T04:28:05.106Z,997.8
2017-02-21T04:30:37.735Z,997.8
2017-02-21T04:33:10.370Z,997.8
2017-02-21T04:35:43.007Z,997.7
2017-02-21T04:38:15.623Z,997.7
2017-02-21T04:40:48.238Z,997.7
2017-02-21T04:43:21.275Z,997.7
2017-02-21T04:45:54.328Z,997.8
2017-02-21T04:48:26.945Z,997.7
2017-02-21T04:50:59.599Z,997.7
2017-02-21T04:53:32.211Z,997.8
2017-02-21T04:56:05.264Z,997.7
2017-02-21T04:58:38.319Z,997.8
2017-02-21T05:01:11.400Z,997.8
2017-02-21T05:03:44.041Z,997.8
2017-02-21T05:06:17.173Z,997.8
2017-02-21T05:08:50.051Z,997.8
2017-02-21T05:11:23.083Z,997.8
2017-02-21T05:13:56.177Z,997.8
2017-02-21T05:16:28.841Z,997.8
2017-02-21T05:19:01.480Z,997.8
2017-02-21T05:21:34.539Z,997.8
2017-02-21T05:24:07.663Z,997.8
2017-02-21T05:26:40.277Z,997.8
2017-02-21T05:29:12.927Z,997.8
2017-02-21T05:31:45.566Z,997.9
2017-02-21T05:34:18.629Z,997.8
2017-02-21T05:36:51.687Z,997.9
2017-02-21T05:39:24.305Z,998
2017-02-21T05:41:56.983Z,998
2017-02-21T05:44:29.627Z,998
2017-02-21T05:47:02.267Z,998
2017-02-21T05:49:34.905Z,998.1
2017-02-21T05:52:07.554Z,998.1
2017-02-21T05:54:40.197Z,998.1
2017-02-21T05:57:12.845Z,998.2
2017-02-21T05:59:46.336Z,998.2
2017-02-21T06:02:19.403Z,998.2
2017-02-21T06:04:52.079Z,998.2
2017-02-21T06:07:25.112Z,998.2
2017-02-21T06:09:58.568Z,998.2
2017-02-21T06:12:31.188Z,998.3
2017-02-21T06:15:03.824Z,998.3
2017-02-21T06:17:36.469Z,998.3
2017-02-21T06:20:09.934Z,998.4
2017-02-21T06:22:43.464Z,998.5
2017-02-21T06:25:16.563Z,998.4
2017-02-21T06:27:49.171Z,998.5
2017-02-21T06:30:22.225Z,998.4
2017-02-21T06:32:54.841Z,998.4
2017-02-21T06:35:27.494Z,998.5
2017-02-21T06:38:00.155Z,998.5
2017-02-21T06:40:33.632Z,998.5
2017-02-21T06:43:06.278Z,998.5
2017-02-21T06:45:39.339Z,998.5
2017-02-21T06:48:11.945Z,998.6
2017-02-21T06:50:44.581Z,998.7
2017-02-21T06:53:17.237Z,998.7
2017-02-21T06:55:49.835Z,998.7
2017-02-21T06:58:22.692Z,998.8
2017-02-21T07:00:55.740Z,998.9
2017-02-21T07:03:28.800Z,998.9
2017-02-21T07:06:01.430Z,999
2017-02-21T07:08:34.491Z,998.9
2017-02-21T07:11:07.163Z,999
2017-02-21T07:13:39.809Z,999.1
2017-02-21T07:16:12.438Z,999.2
2017-02-21T07:18:45.086Z,999.3
2017-02-21T07:21:17.714Z,999.4
2017-02-21T07:23:51.222Z,999.3
2017-02-21T07:26:24.298Z,999.4
2017-02-21T07:28:56.955Z,999.3
2017-02-21T07:31:29.991Z,999.3
2017-02-21T07:34:03.059Z,999.2
2017-02-21T07:36:35.686Z,999.2
2017-02-21T07:39:08.759Z,999.1
2017-02-21T07:41:41.408Z,999
2017-02-21T07:44:14.227Z,999
2017-02-21T07:46:47.884Z,999
2017-02-21T07:49:21.343Z,998.9
2017-02-21T07:51:53.980Z,998.8
2017-02-21T07:54:26.607Z,998.8
2017-02-21T07:56:59.260Z,998.8
2017-02-21T07:59:31.913Z,998.8
2017-02-21T08:02:04.986Z,999
2017-02-21T08:04:38.029Z,999.1
2017-02-21T08:07:11.091Z,999.1
2017-02-21T08:09:43.742Z,999.1
2017-02-21T08:12:16.357Z,999.1
2017-02-21T08:14:49.412Z,999.1
2017-02-21T08:17:22.064Z,999
2017-02-21T08:19:54.691Z,999.2
2017-02-21T08:22:27.758Z,999.2
2017-02-21T08:25:00.777Z,999.3
2017-02-21T08:27:33.691Z,999.4
2017-02-21T08:30:06.807Z,999.4
2017-02-21T08:32:39.477Z,999.4
2017-02-21T08:35:12.142Z,999.4
2017-02-21T08:37:44.787Z,999.3
2017-02-21T08:40:17.416Z,999.4
2017-02-21T08:42:50.909Z,999.5
2017-02-21T08:45:23.957Z,999.5
2017-02-21T08:47:56.613Z,999.6
2017-02-21T08:50:29.677Z,999.7
2017-02-21T08:53:02.336Z,999.7
2017-02-21T08:55:35.395Z,999.7
2017-02-21T08:58:08.454Z,999.9
2017-02-21T09:00:41.533Z,1000
2017-02-21T09:03:14.152Z,1000
2017-02-21T09:05:47.184Z,1000
2017-02-21T09:08:19.836Z,1000.1
2017-02-21T09:10:52.507Z,1000
2017-02-21T09:13:25.156Z,1000
2017-02-21T09:15:57.771Z,1000.1
2017-02-21T09:18:30.407Z,1000.1
2017-02-21T09:21:03.051Z,1000.1
2017-02-21T09:23:35.711Z,1000.2
2017-02-21T09:26:08.353Z,1000.2
2017-02-21T09:28:41.007Z,1000.3
2017-02-21T09:31:14.080Z,1000.3
2017-02-21T09:33:46.700Z,1000.3
2017-02-21T09:36:19.755Z,1000.3
2017-02-21T09:38:52.365Z,1000.4
2017-02-21T09:41:24.998Z,1000.4
2017-02-21T09:43:58.036Z,1000.5
2017-02-21T09:46:31.097Z,1000.4
2017-02-21T09:49:04.201Z,1000.4
2017-02-21T09:51:37.290Z,1000.6
2017-02-21T09:54:09.911Z,1000.6
2017-02-21T09:56:42.554Z,1000.7
2017-02-21T09:59:15.150Z,1000.6
2017-02-21T10:01:47.789Z,1000.6
2017-02-21T10:04:20.408Z,1000.6
2017-02-21T10:06:53.081Z,1000.6
2017-02-21T10:09:25.736Z,1000.7
2017-02-21T10:11:58.803Z,1000.7
2017-02-21T10:14:31.458Z,1000.6
2017-02-21T10:17:04.103Z,1000.7
2017-02-21T10:19:36.740Z,1000.6
2017-02-21T10:22:09.405Z,1000.7
2017-02-21T10:24:42.484Z,1000.7
2017-02-21T10:27:15.588Z,1000.5
2017-02-21T10:29:48.239Z,1000.5
2017-02-21T10:32:21.264Z,1000.6
2017-02-21T10:34:54.344Z,1000.6
2017-02-21T10:37:27.051Z,1000.6
2017-02-21T10:39:59.678Z,1000.6
2017-02-21T10:42:32.336Z,1000.7
2017-02-21T10:45:04.959Z,1000.7
2017-02-21T10:47:37.623Z,1000.8
2017-02-21T10:50:10.696Z,1000.7
2017-02-21T10:52:43.315Z,1000.7
2017-02-21T10:55:15.936Z,1000.7
2017-02-21T10:57:48.630Z,1000.7
2017-02-21T11:00:21.696Z,1000.6
2017-02-21T11:02:54.348Z,1000.6
2017-02-21T11:05:27.428Z,1000.5
2017-02-21T11:08:00.467Z,1000.5
2017-02-21T11:10:33.913Z,1000.5
2017-02-21T11:13:06.574Z,1000.5
2017-02-21T11:15:39.248Z,1000.3
2017-02-21T11:18:11.906Z,1000.4
2017-02-21T11:20:44.522Z,1000.3
2017-02-21T11:23:17.571Z,1000.4
2017-02-21T11:25:50.194Z,1000.5
2017-02-21T11:28:22.816Z,1000.4
2017-02-21T11:30:55.460Z,1000.5
2017-02-21T11:33:28.090Z,1000.5
2017-02-21T11:36:01.144Z,1000.5
2017-02-21T11:38:34.209Z,1000.5
2017-02-21T11:41:06.822Z,1000.5
2017-02-21T11:43:39.480Z,1000.4
2017-02-21T11:46:12.095Z,1000.5
2017-02-21T11:48:44.732Z,1000.5
2017-02-21T11:51:17.340Z,1000.5
2017-02-21T11:53:49.996Z,1000.5
2017-02-21T11:56:22.637Z,1000.6
2017-02-21T11:58:55.267Z,1000.5
2017-02-21T12:01:27.899Z,1000.4
2017-02-21T12:04:00.519Z,1000.4
2017-02-21T12:06:33.612Z,1000.5
2017-02-21T12:09:06.663Z,1000.5
2017-02-21T12:11:39.309Z,1000.3
2017-02-21T12:14:12.362Z,1000.5
2017-02-21T12:16:45.002Z,1000.4
2017-02-21T12:19:17.663Z,1000.4
2017-02-21T12:21:50.326Z,1000.6
2017-02-21T12:24:22.968Z,1000.6
2017-02-21T12:26:55.609Z,1000.5
2017-02-21T12:29:28.253Z,1000.4
2017-02-21T12:32:00.874Z,1000.6
2017-02-21T12:34:33.516Z,1000.5
2017-02-21T12:37:06.155Z,1000.5
2017-02-21T12:39:38.802Z,1000.5
2017-02-21T12:42:11.865Z,1000.5
2017-02-21T12:44:44.521Z,1000.6
2017-02-21T12:47:17.466Z,1000.5
2017-02-21T12:49:50.088Z,1000.5
2017-02-21T12:52:23.141Z,1000.4
2017-02-21T12:54:55.788Z,1000.4
2017-02-21T12:57:28.414Z,1000.5
2017-02-21T13:00:01.668Z,1000.5
2017-02-21T13:02:34.718Z,1000.5
2017-02-21T13:05:07.353Z,1000.6
2017-02-21T13:07:40.218Z,1000.4
2017-02-21T13:10:13.282Z,1000.4
2017-02-21T13:12:45.959Z,1000.5
2017-02-21T13:15:18.621Z,1000.5
2017-02-21T13:17:51.420Z,1000.6
2017-02-21T13:20:24.052Z,1000.6
2017-02-21T13:22:56.692Z,1000.7
2017-02-21T13:25:29.362Z,1000.6
2017-02-21T13:28:02.009Z,1000.6
2017-02-21T13:30:35.095Z,1000.6
2017-02-21T13:33:08.141Z,1000.6
2017-02-21T13:35:40.783Z,1000.5
2017-02-21T13:38:13.441Z,1000.5
2017-02-21T13:40:46.080Z,1000.4
2017-02-21T13:43:18.706Z,1000.4
2017-02-21T13:45:51.748Z,1000.5
2017-02-21T13:48:24.353Z,1000.4
2017-02-21T13:50:56.999Z,1000.5
2017-02-21T13:53:29.639Z,1000.6
2017-02-21T13:56:02.355Z,1000.5
2017-02-21T13:58:35.171Z,1000.7
2017-02-21T14:01:07.814Z,1000.6
2017-02-21T14:03:40.471Z,1000.6
2017-02-21T14:06:13.115Z,1000.7
2017-02-21T14:08:45.786Z,1000.7
2017-02-21T14:11:18.857Z,1000.8
2017-02-21T14:13:51.915Z,1000.8
2017-02-21T14:16:25.397Z,1000.8
2017-02-21T14:18:58.048Z,1000.9
2017-02-21T14:21:30.695Z,1000.9
2017-02-21T14:24:03.742Z,1000.9
2017-02-21T14:26:36.382Z,1000.9
2017-02-21T14:29:09.438Z,1000.9
2017-02-21T14:31:42.495Z,1001
2017-02-21T14:34:15.096Z,1001.1
2017-02-21T14:36:47.728Z,1001.1
2017-02-21T14:39:20.790Z,1001
2017-02-21T14:41:53.836Z,1001
2017-02-21T14:44:26.485Z,1001
2017-02-21T14:46:59.611Z,1001.1
2017-02-21T14:49:32.268Z,1001
2017-02-21T14:52:05.354Z,1001.1
2017-02-21T14:54:38.018Z,1001.1
2017-02-21T14:57:11.488Z,1001.1
2017-02-21T14:59:44.119Z,1001.2
2017-02-21T15:02:16.780Z,1001.1
2017-02-21T15:04:49.411Z,1001.2
2017-02-21T15:07:22.043Z,1001.2
2017-02-21T15:09:54.678Z,1001.2
2017-02-21T15:12:27.348Z,1001.2
2017-02-21T15:14:59.943Z,1001.2
2017-02-21T15:17:32.774Z,1001.2
2017-02-21T15:20:05.390Z,1001.2
2017-02-21T15:22:38.096Z,1001.3
2017-02-21T15:25:10.728Z,1001.3
2017-02-21T15:27:43.364Z,1001.4
2017-02-21T15:30:16.429Z,1001.4
2017-02-21T15:32:49.519Z,1001.5
2017-02-21T15:35:22.137Z,1001.4
2017-02-21T15:37:55.157Z,1001.4
2017-02-21T15:40:27.793Z,1001.6
2017-02-21T15:43:00.408Z,1001.6
2017-02-21T15:45:33.076Z,1001.7
2017-02-21T15:48:06.229Z,1001.6
2017-02-21T15:50:39.543Z,1001.6
2017-02-21T15:53:12.375Z,1001.8
2017-02-21T15:55:45.461Z,1001.8
2017-02-21T15:58:18.105Z,1001.7
2017-02-21T16:00:51.217Z,1001.8
2017-02-21T16:03:25.065Z,1001.8
2017-02-21T16:05:57.779Z,1001.9
2017-02-21T16:08:30.426Z,1001.8
2017-02-21T16:11:03.480Z,1002
2017-02-21T16:13:36.553Z,1001.9
2017-02-21T16:16:09.602Z,1002.1
2017-02-21T16:18:42.667Z,1002.1
2017-02-21T16:21:15.720Z,1002.3
2017-02-21T16:23:48.751Z,1002.2
2017-02-21T16:26:21.805Z,1002.1
2017-02-21T16:28:54.421Z,1002.2
2017-02-21T16:31:27.030Z,1002.2
2017-02-21T16:34:00.094Z,1002.1
2017-02-21T16:36:32.747Z,1002.1
2017-02-21T16:39:05.348Z,1002.2
2017-02-21T16:41:38.630Z,1002.2
2017-02-21T16:44:11.267Z,1002.2
2017-02-21T16:46:43.927Z,1002.3
2017-02-21T16:49:16.572Z,1002.3
2017-02-21T16:51:49.209Z,1002.3
2017-02-21T16:54:21.861Z,1002.3
2017-02-21T16:56:54.521Z,1002.3
2017-02-21T16:59:27.169Z,1002.4
2017-02-21T17:01:59.797Z,1002.4
2017-02-21T17:04:32.418Z,1002.3
2017-02-21T17:07:05.055Z,1002.4
2017-02-21T17:09:37.677Z,1002.5
2017-02-21T17:12:10.297Z,1002.5
2017-02-21T17:14:42.903Z,1002.5
2017-02-21T17:17:15.955Z,1002.5
2017-02-21T17:19:48.989Z,1002.5
2017-02-21T17:22:21.636Z,1002.5
2017-02-21T17:24:54.297Z,1002.5
2017-02-21T17:27:26.922Z,1002.6
2017-02-21T17:30:00.152Z,1002.5
2017-02-21T17:32:32.772Z,1002.6
2017-02-21T17:35:05.815Z,1002.5
2017-02-21T17:37:38.491Z,1002.5
2017-02-21T17:40:12.018Z,1002.5
2017-02-21T17:42:44.622Z,1002.5
2017-02-21T17:45:17.286Z,1002.6
2017-02-21T17:47:49.928Z,1002.5
2017-02-21T17:50:22.740Z,1002.5
2017-02-21T17:52:55.381Z,1002.5
2017-02-21T17:55:28.445Z,1002.6
2017-02-21T17:58:01.469Z,1002.5
2017-02-21T18:00:34.135Z,1002.5
2017-02-21T18:03:07.203Z,1002.5
2017-02-21T18:05:39.853Z,1002.5
2017-02-21T18:08:12.508Z,1002.5
2017-02-21T18:10:45.549Z,1002.5
2017-02-21T18:13:18.630Z,1002.5
2017-02-21T18:15:52.151Z,1002.5
2017-02-21T18:18:24.806Z,1002.5
2017-02-21T18:20:57.436Z,1002.5
2017-02-21T18:23:30.110Z,1002.5
2017-02-21T18:26:02.724Z,1002.5
2017-02-21T18:28:35.364Z,1002.5
2017-02-21T18:31:07.984Z,1002.4
2017-02-21T18:33:41.027Z,1002.4
2017-02-21T18:36:13.617Z,1002.5
2017-02-21T18:38:46.238Z,1002.5
2017-02-21T18:41:18.862Z,1002.5
2017-02-21T18:43:51.919Z,1002.6
2017-02-21T18:46:24.576Z,1002.5
2017-02-21T18:48:57.655Z,1002.5
2017-02-21T18:51:30.702Z,1002.5
2017-02-21T18:54:03.520Z,1002.5
2017-02-21T18:56:36.171Z,1002.5
2017-02-21T18:59:08.778Z,1002.6
2017-02-21T19:01:41.851Z,1002.5
2017-02-21T19:04:14.473Z,1002.4
2017-02-21T19:06:47.110Z,1002.4
2017-02-21T19:09:19.721Z,1002.5
2017-02-21T19:11:52.388Z,1002.4
2017-02-21T19:14:25.036Z,1002.4
2017-02-21T19:16:58.513Z,1002.5
2017-02-21T19:19:31.116Z,1002.5
2017-02-21T19:22:03.730Z,1002.5
2017-02-21T19:24:36.786Z,1002.6
2017-02-21T19:27:09.429Z,1002.6
2017-02-21T19:29:42.077Z,1002.6
2017-02-21T19:32:14.699Z,1002.6
2017-02-21T19:34:47.746Z,1002.5
2017-02-21T19:37:20.819Z,1002.5
2017-02-21T19:39:53.423Z,1002.5
2017-02-21T19:42:26.526Z,1002.5
2017-02-21T19:44:59.579Z,1002.5
2017-02-21T19:47:32.232Z,1002.5
2017-02-21T19:50:04.851Z,1002.6
2017-02-21T19:52:37.530Z,1002.5
2017-02-21T19:55:11.017Z,1002.4
2017-02-21T19:57:43.628Z,1002.5
2017-02-21T20:00:16.265Z,1002.5
2017-02-21T20:02:48.874Z,1002.5
2017-02-21T20:05:21.532Z,1002.4
2017-02-21T20:07:54.195Z,1002.4
2017-02-21T20:10:26.986Z,1002.4
2017-02-21T20:12:59.605Z,1002.3
2017-02-21T20:15:32.256Z,1002.3
2017-02-21T20:18:05.725Z,1002.2
2017-02-21T20:20:38.360Z,1002.3
2017-02-21T20:23:11.456Z,1002.2
2017-02-21T20:25:44.106Z,1002.2
2017-02-21T20:28:17.173Z,1002.2
2017-02-21T20:30:50.218Z,1002.2
2017-02-21T20:33:22.867Z,1002.2
2017-02-21T20:35:55.502Z,1002.2
2017-02-21T20:38:28.159Z,1002.2
2017-02-21T20:41:01.215Z,1002.2
2017-02-21T20:43:34.042Z,1002.2
2017-02-21T20:46:06.680Z,1002.2
2017-02-21T20:48:39.340Z,1002.1
2017-02-21T20:51:11.947Z,1002.1
2017-02-21T20:53:45.002Z,1002.1
2017-02-21T20:56:18.039Z,1002
2017-02-21T20:58:51.099Z,1002
2017-02-21T21:01:24.133Z,1002
2017-02-21T21:03:57.214Z,1002
2017-02-21T21:06:29.855Z,1001.9
2017-02-21T21:09:02.490Z,1001.9
2017-02-21T21:11:35.132Z,1001.9
2017-02-21T21:14:07.774Z,1001.9
2017-02-21T21:16:40.402Z,1001.9
2017-02-21T21:19:13.048Z,1001.9
2017-02-21T21:21:45.837Z,1001.8
2017-02-21T21:24:18.471Z,1001.8
2017-02-21T21:26:51.547Z,1001.8
2017-02-21T21:29:24.613Z,1001.8
2017-02-21T21:31:57.244Z,1001.8
2017-02-21T21:34:30.350Z,1001.8
2017-02-21T21:37:03.002Z,1001.7
2017-02-21T21:39:35.658Z,1001.7
2017-02-21T21:42:08.272Z,1001.6
2017-02-21T21:44:40.879Z,1001.6
2017-02-21T21:47:13.932Z,1001.6
2017-02-21T21:49:47.025Z,1001.5
2017-02-21T21:52:20.067Z,1001.4
2017-02-21T21:54:53.139Z,1001.4
2017-02-21T21:57:25.770Z,1001.4
2017-02-21T21:59:58.409Z,1001.3
2017-02-21T22:02:31.064Z,1001.2
2017-02-21T22:05:03.722Z,1001.1
2017-02-21T22:07:36.777Z,1001.1
2017-02-21T22:10:09.833Z,1001
2017-02-21T22:12:42.473Z,1001.1
2017-02-21T22:15:15.529Z,1001
2017-02-21T22:17:49.209Z,1001
2017-02-21T22:20:21.848Z,1001
2017-02-21T22:22:54.443Z,1001
2017-02-21T22:25:27.067Z,1001
2017-02-21T22:28:00.103Z,1001
2017-02-21T22:30:32.765Z,1000.9
2017-02-21T22:33:05.421Z,1000.8
2017-02-21T22:35:38.077Z,1000.7
2017-02-21T22:38:10.887Z,1000.7
2017-02-21T22:40:43.517Z,1000.6
2017-02-21T22:43:16.567Z,1000.5
2017-02-21T22:45:49.177Z,1000.5
2017-02-21T22:48:22.221Z,1000.5
2017-02-21T22:50:54.831Z,1000.4
2017-02-21T22:53:27.478Z,1000.3
2017-02-21T22:56:00.101Z,1000.3
2017-02-21T22:58:32.723Z,1000.3
2017-02-21T23:01:05.350Z,1000.2
2017-02-21T23:03:37.978Z,1000.2
2017-02-21T23:06:10.620Z,1000.1
2017-02-21T23:08:43.238Z,1000.1
2017-02-21T23:11:16.302Z,1000
2017-02-21T23:13:49.565Z,999.9
2017-02-21T23:16:22.184Z,999.9
2017-02-21T23:18:54.848Z,999.8
2017-02-21T23:21:27.915Z,999.8
2017-02-21T23:24:00.537Z,999.8
2017-02-21T23:26:34.013Z,999.7
2017-02-21T23:29:07.483Z,999.6
2017-02-21T23:31:40.094Z,999.4
2017-02-21T23:34:12.756Z,999.4
2017-02-21T23:36:45.412Z,999.2
2017-02-21T23:39:18.041Z,999.2
2017-02-21T23:41:51.089Z,999.1
2017-02-21T23:44:23.704Z,999.2
2017-02-21T23:46:56.352Z,999.1
2017-02-21T23:49:29.002Z,999.1
2017-02-21T23:52:01.659Z,999.1
2017-02-21T23:54:34.271Z,999
2017-02-21T23:57:07.336Z,999
2017-02-21T23:59:39.988Z,998.9
